Time;durP1;ratioP1;P1;durP2;ratioP2;P2;SDS_P1;SDS_P2;PMS_P1;PMS_P2;Temp;Humidity;BMP_temperature;BMP_pressure;BME280_temperature;BME280_humidity;BME280_pressure;Samples;Min_cycle;Max_cycle;Signal;HPM_P1;HPM_P2
2024/01/11 00:02:09;;;;;;;93.50;35.03;;;-2.10;91.60;;;;;;786832;182;26512;-77
2024/01/11 00:04:36;;;;;;;90.13;34.47;;;-2.10;91.70;;;;;;786084;182;26478;-77
2024/01/11 00:07:03;;;;;;;80.23;32.50;;;-2.10;91.80;;;;;;785995;181;26458;-77
2024/01/11 00:09:29;;;;;;;82.30;33.73;;;-2.10;91.70;;;;;;768226;185;26590;-77
2024/01/11 00:11:56;;;;;;;82.53;32.90;;;-2.10;91.50;;;;;;783555;183;26534;-77
2024/01/11 00:14:22;;;;;;;78.40;32.57;;;-2.10;91.80;;;;;;781694;183;26483;-76
2024/01/11 00:16:49;;;;;;;84.87;33.37;;;-2.10;91.80;;;;;;779163;184;26526;-77
2024/01/11 00:19:16;;;;;;;84.97;33.97;;;-2.10;91.70;;;;;;782421;183;27100;-77
2024/01/11 00:21:42;;;;;;;82.07;31.77;;;-2.10;91.50;;;;;;781519;183;26561;-77
2024/01/11 00:24:09;;;;;;;86.10;31.70;;;-2.10;91.40;;;;;;779647;183;27061;-75
2024/01/11 00:26:36;;;;;;;82.60;33.20;;;-2.00;91.30;;;;;;782622;183;26526;-77
2024/01/11 00:29:02;;;;;;;85.40;33.90;;;-2.00;91.30;;;;;;780657;182;26461;-77
2024/01/11 00:31:29;;;;;;;80.30;35.77;;;-2.00;91.50;;;;;;779748;183;26952;-77
2024/01/11 00:33:55;;;;;;;76.90;31.33;;;-2.00;91.60;;;;;;782886;182;26533;-77
2024/01/11 00:36:22;;;;;;;77.83;31.23;;;-2.00;91.60;;;;;;782773;182;27049;-77
2024/01/11 00:38:50;;;;;;;90.80;34.90;;;-2.00;91.60;;;;;;784040;180;26491;-77
2024/01/11 00:41:17;;;;;;;74.93;31.77;;;-2.00;91.80;;;;;;796395;179;26435;-77
2024/01/11 00:43:44;;;;;;;76.83;32.10;;;-2.10;92.10;;;;;;779510;180;26452;-77
2024/01/11 00:46:10;;;;;;;85.73;32.67;;;-2.10;92.20;;;;;;791106;180;26476;-78
2024/01/11 00:48:37;;;;;;;82.77;32.53;;;-2.10;92.10;;;;;;789210;178;27031;-78
2024/01/11 00:51:05;;;;;;;75.77;30.43;;;-2.10;92.00;;;;;;789126;181;26551;-77
2024/01/11 00:53:33;;;;;;;76.17;31.97;;;-2.10;91.90;;;;;;769916;184;26528;-76
2024/01/11 00:55:59;;;;;;;83.93;32.60;;;-2.10;92.00;;;;;;805373;177;26972;-77
2024/01/11 00:58:25;;;;;;;78.70;31.63;;;-2.10;92.10;;;;;;786534;181;26443;-78
2024/01/11 01:00:52;;;;;;;84.40;33.13;;;-2.10;92.20;;;;;;792295;181;26457;-78
2024/01/11 01:03:19;;;;;;;90.53;33.70;;;-2.00;92.40;;;;;;794319;178;26457;-78
2024/01/11 01:05:46;;;;;;;85.33;32.13;;;-2.10;92.50;;;;;;792204;179;27034;-78
2024/01/11 01:08:12;;;;;;;73.93;28.67;;;-2.10;92.40;;;;;;789036;179;26466;-78
2024/01/11 01:10:39;;;;;;;80.60;31.53;;;-2.10;92.30;;;;;;792271;180;26523;-77
2024/01/11 01:13:05;;;;;;;77.53;30.97;;;-2.10;92.20;;;;;;791894;181;26992;-78
2024/01/11 01:15:32;;;;;;;76.63;31.33;;;-2.10;92.10;;;;;;793571;180;26517;-77
2024/01/11 01:17:58;;;;;;;76.87;32.10;;;-2.10;92.20;;;;;;792438;180;27036;-78
2024/01/11 01:20:25;;;;;;;80.10;33.37;;;-2.10;92.30;;;;;;787654;180;26538;-77
2024/01/11 01:22:52;;;;;;;76.53;31.37;;;-2.10;92.40;;;;;;794686;181;27116;-78
2024/01/11 01:25:18;;;;;;;87.20;32.57;;;-2.20;92.40;;;;;;794696;181;26485;-77
2024/01/11 01:27:45;;;;;;;81.00;31.57;;;-2.20;92.40;;;;;;787441;181;27052;-76
2024/01/11 01:30:11;;;;;;;87.43;33.37;;;-2.20;92.50;;;;;;785453;181;26546;-77
2024/01/11 01:32:38;;;;;;;82.03;35.37;;;-2.20;92.50;;;;;;789011;181;26540;-77
2024/01/11 01:35:05;;;;;;;94.50;35.87;;;-2.10;92.50;;;;;;789986;181;27079;-77
2024/01/11 01:37:31;;;;;;;100.10;36.63;;;-2.10;92.40;;;;;;793888;180;26429;-78
2024/01/11 01:39:58;;;;;;;90.80;38.87;;;-2.10;92.40;;;;;;786815;179;26566;-78
2024/01/11 01:42:24;;;;;;;99.97;37.33;;;-2.00;92.40;;;;;;794177;180;26456;-77
2024/01/11 01:44:51;;;;;;;99.37;36.93;;;-2.00;92.30;;;;;;793921;181;26435;-77
2024/01/11 01:47:18;;;;;;;98.90;37.27;;;-2.00;92.30;;;;;;787983;181;26431;-77
2024/01/11 01:49:44;;;;;;;104.07;39.77;;;-2.00;92.40;;;;;;785618;181;26521;-78
2024/01/11 01:52:11;;;;;;;91.97;38.13;;;-2.00;92.20;;;;;;786761;180;26466;-77
2024/01/11 01:54:38;;;;;;;95.23;36.93;;;-2.00;91.90;;;;;;787145;181;26461;-77
2024/01/11 01:57:05;;;;;;;93.50;38.33;;;-2.00;92.00;;;;;;779649;184;26506;-77
2024/01/11 01:59:31;;;;;;;89.83;37.50;;;-2.00;92.00;;;;;;783232;181;27005;-77
2024/01/11 02:01:58;;;;;;;112.13;41.43;;;-2.10;92.10;;;;;;785406;181;26497;-77
2024/01/11 02:04:25;;;;;;;94.57;37.33;;;-2.10;92.00;;;;;;784732;180;26434;-77
2024/01/11 02:06:51;;;;;;;100.53;38.97;;;-2.10;91.70;;;;;;779652;184;26434;-76
2024/01/11 02:09:18;;;;;;;94.33;38.43;;;-2.10;91.60;;;;;;779787;177;26468;-77
2024/01/11 02:11:44;;;;;;;93.63;37.50;;;-2.10;91.70;;;;;;787441;181;26530;-77
2024/01/11 02:14:11;;;;;;;90.07;36.63;;;-2.20;91.80;;;;;;791189;179;26453;-75
2024/01/11 02:16:38;;;;;;;96.93;38.00;;;-2.20;92.00;;;;;;787069;180;26530;-77
2024/01/11 02:19:05;;;;;;;102.20;39.60;;;-2.20;92.10;;;;;;790516;180;26520;-77
2024/01/11 02:21:31;;;;;;;98.60;36.87;;;-2.20;92.30;;;;;;789087;180;26499;-77
2024/01/11 02:24:06;;;;;;;98.33;39.53;;;-2.20;92.50;;;;;;788170;179;27011;-77
2024/01/11 02:26:33;;;;;;;101.90;37.97;;;-2.30;92.70;;;;;;780597;179;26437;-76
2024/01/11 02:29:00;;;;;;;92.00;38.07;;;-2.30;92.60;;;;;;787178;180;26570;-77
2024/01/11 02:31:26;;;;;;;103.53;39.97;;;-2.30;92.70;;;;;;790695;179;26501;-76
2024/01/11 02:33:53;;;;;;;125.30;45.13;;;-2.30;92.60;;;;;;788231;180;26482;-76
2024/01/11 02:36:19;;;;;;;111.03;41.30;;;-2.20;92.40;;;;;;791437;180;26437;-79
2024/01/11 02:38:46;;;;;;;112.50;41.43;;;-2.20;92.30;;;;;;786561;180;26453;-76
2024/01/11 02:41:12;;;;;;;107.23;41.90;;;-2.20;92.40;;;;;;783804;181;27033;-77
2024/01/11 02:43:39;;;;;;;100.70;40.67;;;-2.20;92.30;;;;;;787028;179;26494;-75
2024/01/11 02:46:06;;;;;;;99.70;40.77;;;-2.20;92.00;;;;;;794400;180;26971;-76
2024/01/11 02:48:32;;;;;;;111.70;42.03;;;-2.30;91.80;;;;;;790414;181;26433;-77
2024/01/11 02:50:59;;;;;;;106.60;40.57;;;-2.30;91.60;;;;;;783358;181;26587;-76
2024/01/11 02:53:26;;;;;;;100.53;37.50;;;-2.30;91.50;;;;;;785618;182;26987;-76
2024/01/11 02:55:52;;;;;;;103.27;40.83;;;-2.30;91.40;;;;;;785701;181;26627;-74
2024/01/11 02:58:20;;;;;;;103.00;38.27;;;-2.20;91.30;;;;;;785876;182;28120;-76
2024/01/11 03:00:46;;;;;;;109.13;41.03;;;-2.30;91.10;;;;;;787371;181;26465;-76
2024/01/11 03:03:14;;;;;;;195.43;65.47;;;-2.20;91.00;;;;;;787131;181;26468;-77
2024/01/11 03:05:39;;;;;;;141.23;48.80;;;-2.20;90.90;;;;;;779733;181;26511;-76
2024/01/11 03:08:06;;;;;;;111.73;40.47;;;-2.20;90.80;;;;;;787796;181;26523;-77
2024/01/11 03:10:32;;;;;;;117.90;41.13;;;-2.20;91.20;;;;;;790976;181;27049;-76
2024/01/11 03:12:59;;;;;;;91.40;38.50;;;-2.30;91.20;;;;;;789120;181;26434;-76
2024/01/11 03:15:26;;;;;;;93.33;36.57;;;-2.30;91.00;;;;;;790654;180;27060;-75
2024/01/11 03:17:52;;;;;;;95.47;38.93;;;-2.30;90.90;;;;;;790517;181;26494;-76
2024/01/11 03:20:23;;;;;;;101.90;39.20;;;-2.30;90.80;;;;;;784725;181;26985;-76
2024/01/11 03:22:46;;;;;;;97.33;37.50;;;-2.30;90.80;;;;;;788706;181;26484;-77
2024/01/11 03:25:12;;;;;;;98.30;37.70;;;-2.30;90.70;;;;;;781085;182;26446;-76
2024/01/11 03:27:39;;;;;;;97.80;36.73;;;-2.30;90.50;;;;;;781814;183;26698;-75
2024/01/11 03:30:06;;;;;;;94.03;37.07;;;-2.30;90.60;;;;;;783900;180;26528;-77
2024/01/11 03:32:32;;;;;;;103.17;40.00;;;-2.30;90.80;;;;;;790166;180;26432;-77
2024/01/11 03:34:59;;;;;;;98.70;37.60;;;-2.30;90.70;;;;;;791362;180;27057;-76
2024/01/11 03:37:26;;;;;;;96.83;36.90;;;-2.30;91.00;;;;;;786923;180;26457;-76
2024/01/11 03:39:52;;;;;;;90.67;37.37;;;-2.40;90.70;;;;;;790017;180;27041;-76
2024/01/11 03:42:19;;;;;;;94.83;36.43;;;-2.40;90.80;;;;;;786975;180;26457;-76
2024/01/11 03:44:45;;;;;;;96.57;38.30;;;-2.50;90.60;;;;;;789815;181;27003;-76
2024/01/11 03:47:12;;;;;;;97.10;36.90;;;-2.50;90.60;;;;;;792196;181;26469;-77
2024/01/11 03:49:39;;;;;;;93.27;35.17;;;-2.50;90.90;;;;;;789505;181;27028;-77
2024/01/11 03:52:06;;;;;;;93.93;35.77;;;-2.60;91.00;;;;;;788253;180;26438;-77
2024/01/11 03:54:32;;;;;;;95.47;37.03;;;-2.70;90.20;;;;;;789721;181;27232;-74
2024/01/11 03:56:59;;;;;;;92.63;35.37;;;-2.70;90.30;;;;;;791037;180;26480;-77
2024/01/11 03:59:25;;;;;;;96.53;35.13;;;-2.70;90.50;;;;;;794329;181;26991;-77
2024/01/11 04:01:52;;;;;;;94.30;36.67;;;-2.70;90.40;;;;;;789553;181;26450;-77
2024/01/11 04:04:19;;;;;;;101.23;37.37;;;-2.80;90.60;;;;;;790441;181;26991;-75
2024/01/11 04:06:45;;;;;;;94.53;37.73;;;-2.80;90.90;;;;;;790956;181;26464;-77
2024/01/11 04:09:12;;;;;;;109.03;38.57;;;-2.80;91.10;;;;;;794014;181;26496;-77
2024/01/11 04:11:38;;;;;;;102.13;37.73;;;-2.90;91.20;;;;;;790852;180;26429;-76
2024/01/11 04:14:06;;;;;;;95.80;37.30;;;-2.90;91.40;;;;;;788940;181;26441;-77
2024/01/11 04:16:32;;;;;;;104.40;38.27;;;-2.90;91.60;;;;;;793791;180;26458;-77
2024/01/11 04:18:58;;;;;;;103.80;38.30;;;-2.90;91.80;;;;;;787306;181;28114;-77
2024/01/11 04:21:28;;;;;;;107.77;41.20;;;-2.90;92.00;;;;;;788359;180;26498;-77
2024/01/11 04:23:51;;;;;;;108.53;41.53;;;-3.00;92.10;;;;;;786029;179;26442;-77
2024/01/11 04:26:18;;;;;;;113.37;38.30;;;-3.00;92.30;;;;;;779658;184;26515;-78
2024/01/11 04:28:46;;;;;;;94.47;38.13;;;-3.00;92.40;;;;;;779712;181;26544;-76
2024/01/11 04:31:12;;;;;;;102.80;39.83;;;-3.00;92.60;;;;;;789051;179;26487;-75
2024/01/11 04:33:41;;;;;;;95.97;37.63;;;-3.10;92.60;;;;;;790574;181;26460;-76
2024/01/11 04:36:07;;;;;;;108.97;39.63;;;-3.10;92.70;;;;;;786839;181;26440;-77
2024/01/11 04:38:34;;;;;;;94.13;38.20;;;-3.10;92.80;;;;;;782129;179;27080;-77
2024/01/11 04:41:00;;;;;;;105.57;39.07;;;-3.10;92.90;;;;;;787974;180;26454;-75
2024/01/11 04:43:27;;;;;;;103.33;40.43;;;-3.10;93.00;;;;;;786727;180;26971;-77
2024/01/11 04:45:54;;;;;;;101.20;38.03;;;-3.10;92.90;;;;;;791465;181;26435;-77
2024/01/11 04:48:20;;;;;;;111.77;40.73;;;-3.10;92.80;;;;;;783039;181;26514;-77
2024/01/11 04:50:47;;;;;;;107.57;38.83;;;-3.10;92.70;;;;;;786381;180;27024;-78
2024/01/11 04:53:14;;;;;;;104.27;39.13;;;-3.10;92.70;;;;;;791248;180;26501;-77
2024/01/11 04:55:40;;;;;;;111.90;39.30;;;-3.10;92.70;;;;;;784749;181;27076;-74
2024/01/11 04:58:07;;;;;;;99.60;37.43;;;-3.10;92.80;;;;;;786477;177;27009;-79
2024/01/11 05:00:33;;;;;;;99.33;40.00;;;-3.10;92.60;;;;;;787237;181;26522;-76
2024/01/11 05:03:00;;;;;;;97.37;38.97;;;-3.20;92.50;;;;;;789227;181;27008;-76
2024/01/11 05:05:26;;;;;;;101.30;38.97;;;-3.20;92.50;;;;;;788790;181;27035;-74
2024/01/11 05:07:53;;;;;;;111.40;37.83;;;-3.20;92.50;;;;;;786114;180;26476;-77
2024/01/11 05:10:20;;;;;;;109.50;38.63;;;-3.20;92.60;;;;;;788641;180;28084;-76
2024/01/11 05:12:46;;;;;;;107.07;39.27;;;-3.20;92.80;;;;;;786353;182;26462;-78
2024/01/11 05:15:13;;;;;;;102.97;38.23;;;-3.30;92.90;;;;;;779849;184;26459;-77
2024/01/11 05:17:39;;;;;;;106.60;40.20;;;-3.30;92.90;;;;;;780044;181;26586;-78
2024/01/11 05:20:07;;;;;;;102.27;36.77;;;-3.30;93.00;;;;;;784869;181;27034;-78
2024/01/11 05:22:33;;;;;;;117.13;39.77;;;-3.30;93.20;;;;;;783702;179;26463;-77
2024/01/11 05:25:00;;;;;;;97.90;36.63;;;-3.30;93.20;;;;;;791288;181;26466;-77
2024/01/11 05:27:27;;;;;;;105.53;36.23;;;-3.40;93.20;;;;;;787263;181;26996;-75
2024/01/11 05:29:53;;;;;;;107.93;39.87;;;-3.30;93.10;;;;;;781049;181;26484;-76
2024/01/11 05:32:20;;;;;;;106.83;38.87;;;-3.40;93.00;;;;;;786251;181;26427;-77
2024/01/11 05:34:47;;;;;;;100.83;38.70;;;-3.30;93.20;;;;;;781652;180;26527;-76
2024/01/11 05:37:13;;;;;;;92.73;36.60;;;-3.30;93.30;;;;;;783419;181;27003;-78
2024/01/11 05:39:40;;;;;;;103.83;38.40;;;-3.40;93.20;;;;;;779918;181;28152;-75
2024/01/11 05:42:07;;;;;;;103.43;39.47;;;-3.40;93.30;;;;;;785985;180;26976;-77
2024/01/11 05:44:33;;;;;;;105.20;37.33;;;-3.40;93.40;;;;;;784211;181;27027;-76
2024/01/11 05:47:00;;;;;;;98.07;37.27;;;-3.40;93.40;;;;;;784775;180;26738;-75
2024/01/11 05:49:26;;;;;;;96.93;38.07;;;-3.40;93.50;;;;;;791302;179;27034;-78
2024/01/11 05:51:53;;;;;;;103.97;39.07;;;-3.40;93.60;;;;;;784782;180;26484;-77
2024/01/11 05:54:20;;;;;;;106.37;39.90;;;-3.40;93.70;;;;;;788767;180;26461;-75
2024/01/11 05:56:46;;;;;;;105.70;37.77;;;-3.40;93.80;;;;;;795481;177;26452;-78
2024/01/11 05:59:13;;;;;;;100.90;38.77;;;-3.40;93.80;;;;;;788118;180;26488;-78
2024/01/11 06:01:42;;;;;;;107.87;39.70;;;-3.50;93.90;;;;;;792200;180;26464;-78
2024/01/11 06:04:08;;;;;;;97.50;36.37;;;-3.50;93.90;;;;;;792766;181;26444;-78
2024/01/11 06:06:34;;;;;;;105.03;38.40;;;-3.50;94.00;;;;;;789858;181;26460;-79
2024/01/11 06:09:04;;;;;;;111.67;39.50;;;-3.50;93.90;;;;;;787101;181;26524;-78
2024/01/11 06:11:28;;;;;;;104.73;39.47;;;-3.50;93.90;;;;;;789472;179;26461;-76
2024/01/11 06:13:54;;;;;;;113.30;39.60;;;-3.60;93.90;;;;;;780827;182;27040;-78
2024/01/11 06:16:21;;;;;;;102.97;38.87;;;-3.60;93.90;;;;;;786353;181;26432;-79
2024/01/11 06:18:47;;;;;;;111.40;38.00;;;-3.60;94.00;;;;;;786846;181;26445;-78
2024/01/11 06:21:16;;;;;;;100.23;38.40;;;-3.60;94.00;;;;;;793001;181;26449;-78
2024/01/11 06:23:41;;;;;;;115.27;39.43;;;-3.60;94.00;;;;;;785140;180;26475;-79
2024/01/11 06:26:07;;;;;;;109.33;39.43;;;-3.60;94.00;;;;;;793011;180;26444;-76
2024/01/11 06:28:34;;;;;;;110.70;41.77;;;-3.60;94.20;;;;;;788128;181;26513;-77
2024/01/11 06:31:00;;;;;;;111.37;40.43;;;-3.60;94.20;;;;;;780825;181;26438;-78
2024/01/11 06:33:28;;;;;;;115.03;42.83;;;-3.60;94.40;;;;;;788352;181;26429;-78
2024/01/11 06:35:54;;;;;;;112.63;39.30;;;-3.60;94.50;;;;;;792170;180;26436;-78
2024/01/11 06:38:20;;;;;;;115.70;40.87;;;-3.70;94.50;;;;;;795318;181;26432;-77
2024/01/11 06:40:47;;;;;;;111.33;40.63;;;-3.60;94.70;;;;;;752586;180;26602;-75
2024/01/11 06:43:14;;;;;;;112.13;40.70;;;-3.60;94.70;;;;;;765988;184;26517;-76
2024/01/11 06:45:40;;;;;;;107.10;40.00;;;-3.60;94.70;;;;;;758375;188;27058;-76
2024/01/11 06:48:07;;;;;;;108.33;40.70;;;-3.60;94.60;;;;;;758128;189;26524;-76
2024/01/11 06:50:33;;;;;;;115.77;42.30;;;-3.60;94.50;;;;;;755016;189;26518;-76
2024/01/11 06:53:00;;;;;;;106.87;38.53;;;-3.60;94.40;;;;;;760549;185;26536;-76
2024/01/11 06:55:26;;;;;;;103.13;40.17;;;-3.50;94.40;;;;;;745276;190;26510;-76
2024/01/11 06:57:53;;;;;;;101.77;38.03;;;-3.50;94.20;;;;;;745732;192;27152;-76
2024/01/11 07:00:21;;;;;;;110.47;42.67;;;-3.50;94.10;;;;;;750974;188;26598;-75
2024/01/11 07:02:46;;;;;;;109.93;40.77;;;-3.50;94.00;;;;;;741635;191;26536;-76
2024/01/11 07:05:13;;;;;;;107.90;40.00;;;-3.50;94.10;;;;;;751547;189;26566;-76
2024/01/11 07:07:39;;;;;;;116.77;40.83;;;-3.60;94.00;;;;;;751904;188;27066;-76
2024/01/11 07:10:08;;;;;;;110.07;41.93;;;-3.60;94.00;;;;;;751930;189;26542;-75
2024/01/11 07:12:33;;;;;;;121.17;41.43;;;-3.60;94.00;;;;;;737708;192;26651;-76
2024/01/11 07:15:00;;;;;;;106.63;40.33;;;-3.60;94.10;;;;;;736982;193;26507;-75
2024/01/11 07:17:26;;;;;;;113.07;39.87;;;-3.70;94.10;;;;;;769474;184;28795;-76
2024/01/11 07:19:53;;;;;;;120.37;42.10;;;-3.70;94.20;;;;;;766784;185;26478;-75
2024/01/11 07:22:19;;;;;;;117.13;41.20;;;-3.70;94.20;;;;;;756386;185;28058;-76
2024/01/11 07:24:46;;;;;;;113.27;41.20;;;-3.70;94.20;;;;;;763815;185;26476;-76
2024/01/11 07:27:13;;;;;;;114.23;43.23;;;-3.70;94.20;;;;;;754190;190;26467;-76
2024/01/11 07:29:39;;;;;;;122.70;43.30;;;-3.70;94.40;;;;;;754222;190;26486;-77
2024/01/11 07:32:06;;;;;;;113.03;42.60;;;-3.70;94.40;;;;;;759562;185;26463;-76
2024/01/11 07:34:33;;;;;;;121.53;40.87;;;-3.70;94.40;;;;;;760249;185;27693;-76
2024/01/11 07:36:59;;;;;;;128.07;42.60;;;-3.70;94.30;;;;;;758905;185;26563;-76
2024/01/11 07:39:26;;;;;;;117.77;41.67;;;-3.80;94.20;;;;;;753801;190;26568;-76
2024/01/11 07:41:52;;;;;;;122.37;40.10;;;-3.80;94.30;;;;;;759893;185;27064;-77
2024/01/11 07:44:20;;;;;;;113.17;41.60;;;-3.80;94.20;;;;;;765331;185;26473;-77
2024/01/11 07:46:45;;;;;;;125.60;43.77;;;-3.80;94.30;;;;;;771332;185;26518;-76
2024/01/11 07:49:12;;;;;;;121.97;45.90;;;-3.80;94.30;;;;;;773462;185;26491;-76
2024/01/11 07:51:39;;;;;;;121.67;43.77;;;-3.80;94.40;;;;;;769133;184;26485;-77
2024/01/11 07:54:05;;;;;;;127.57;43.40;;;-3.80;94.50;;;;;;766299;184;26499;-77
2024/01/11 07:56:32;;;;;;;125.70;44.17;;;-3.80;94.50;;;;;;764760;184;26602;-77
2024/01/11 07:58:59;;;;;;;131.53;45.37;;;-3.90;94.40;;;;;;770901;186;26466;-67
2024/01/11 08:01:25;;;;;;;132.60;45.50;;;-3.80;94.50;;;;;;765721;185;28057;-75
2024/01/11 08:03:52;;;;;;;131.77;45.73;;;-3.80;94.70;;;;;;763919;185;26493;-76
2024/01/11 08:06:18;;;;;;;141.30;48.70;;;-3.80;94.70;;;;;;760638;185;26487;-76
2024/01/11 08:08:51;;;;;;;135.33;49.37;;;-3.80;94.80;;;;;;773526;185;26501;-76
2024/01/11 08:11:12;;;;;;;131.77;46.80;;;-3.80;94.90;;;;;;776047;182;26481;-76
2024/01/11 08:13:39;;;;;;;145.50;50.27;;;-3.80;94.90;;;;;;772043;184;26464;-76
2024/01/11 08:16:09;;;;;;;125.17;45.10;;;-3.80;94.90;;;;;;755349;189;27036;-76
2024/01/11 08:18:32;;;;;;;122.03;44.43;;;-3.80;94.80;;;;;;754965;190;26480;-77
2024/01/11 08:20:59;;;;;;;131.63;45.53;;;-3.80;94.50;;;;;;754980;190;26511;-76
2024/01/11 08:23:26;;;;;;;124.47;43.40;;;-3.90;94.40;;;;;;763714;184;27043;-76
2024/01/11 08:25:53;;;;;;;148.33;46.50;;;-3.90;94.50;;;;;;763326;184;26507;-75
2024/01/11 08:28:20;;;;;;;125.07;44.43;;;-3.90;94.50;;;;;;758439;188;26454;-75
2024/01/11 08:30:46;;;;;;;131.33;46.23;;;-3.90;94.60;;;;;;777420;185;27077;-76
2024/01/11 08:33:13;;;;;;;130.83;46.33;;;-3.80;94.70;;;;;;778060;183;26527;-76
2024/01/11 08:35:40;;;;;;;133.73;46.77;;;-3.80;94.80;;;;;;764812;184;28096;-77
2024/01/11 08:38:06;;;;;;;144.57;48.80;;;-3.80;94.80;;;;;;769022;185;26480;-75
2024/01/11 08:40:32;;;;;;;140.57;48.50;;;-3.80;94.80;;;;;;777415;185;26493;-76
2024/01/11 08:42:59;;;;;;;134.67;49.57;;;-3.70;95.00;;;;;;777382;185;26474;-76
2024/01/11 08:45:25;;;;;;;127.90;45.03;;;-3.60;95.10;;;;;;764524;184;26542;-76
2024/01/11 08:47:52;;;;;;;132.33;46.30;;;-3.60;95.10;;;;;;761004;184;27069;-75
2024/01/11 08:50:20;;;;;;;124.73;46.80;;;-3.60;95.00;;;;;;763712;184;26478;-75
2024/01/11 08:52:46;;;;;;;135.47;47.17;;;-3.50;95.20;;;;;;763969;184;26473;-76
2024/01/11 08:55:12;;;;;;;130.73;46.53;;;-3.40;95.20;;;;;;764602;185;27064;-76
2024/01/11 08:57:39;;;;;;;126.27;45.40;;;-3.40;95.30;;;;;;770649;185;26474;-76
2024/01/11 09:00:06;;;;;;;155.63;52.57;;;-3.30;95.30;;;;;;771245;185;27176;-76
2024/01/11 09:02:33;;;;;;;137.37;51.50;;;-3.20;95.20;;;;;;772967;184;26484;-77
2024/01/11 09:04:59;;;;;;;123.40;46.10;;;-3.20;95.20;;;;;;766564;184;26498;-76
2024/01/11 09:07:26;;;;;;;127.97;44.93;;;-3.10;95.00;;;;;;765624;185;27076;-76
2024/01/11 09:09:54;;;;;;;120.70;43.27;;;-3.10;95.00;;;;;;767528;184;26505;-76
2024/01/11 09:12:20;;;;;;;138.00;50.20;;;-3.00;95.00;;;;;;765229;184;26536;-77
2024/01/11 09:14:46;;;;;;;120.70;47.20;;;-2.90;95.20;;;;;;759513;184;27027;-76
2024/01/11 09:17:12;;;;;;;116.40;45.07;;;-2.90;95.30;;;;;;767769;184;26467;-76
2024/01/11 09:19:39;;;;;;;124.83;47.37;;;-2.80;95.50;;;;;;753737;184;26555;-76
2024/01/11 09:22:06;;;;;;;131.17;48.00;;;-2.70;95.50;;;;;;755322;185;26523;-76
2024/01/11 09:24:32;;;;;;;127.40;46.47;;;-2.70;95.70;;;;;;762299;184;26513;-76
2024/01/11 09:26:59;;;;;;;128.83;47.50;;;-2.60;95.70;;;;;;765267;185;27110;-77
2024/01/11 09:29:26;;;;;;;131.97;47.50;;;-2.60;95.50;;;;;;755115;190;26556;-77
2024/01/11 09:31:52;;;;;;;129.30;48.03;;;-2.50;95.50;;;;;;754983;185;26517;-76
2024/01/11 09:34:19;;;;;;;126.73;47.60;;;-2.50;94.80;;;;;;763555;184;26541;-76
2024/01/11 09:36:45;;;;;;;134.27;49.07;;;-2.50;94.10;;;;;;768168;184;26467;-76
2024/01/11 09:39:13;;;;;;;130.07;47.00;;;-2.50;94.00;;;;;;761872;184;27049;-77
2024/01/11 09:41:38;;;;;;;134.23;48.67;;;-2.50;94.00;;;;;;770437;186;26509;-77
2024/01/11 09:44:05;;;;;;;127.87;46.43;;;-2.40;94.20;;;;;;767409;185;26552;-76
2024/01/11 09:46:32;;;;;;;158.57;49.80;;;-2.30;94.40;;;;;;744587;187;27053;-76
2024/01/11 09:48:58;;;;;;;136.03;47.37;;;-2.20;94.50;;;;;;731621;195;26573;-76
2024/01/11 09:51:25;;;;;;;118.47;48.70;;;-2.20;94.60;;;;;;759183;184;26511;-76
2024/01/11 09:53:51;;;;;;;123.73;49.60;;;-2.10;94.70;;;;;;772011;185;27035;-77
2024/01/11 09:56:18;;;;;;;118.60;48.03;;;-2.00;94.90;;;;;;765237;184;26519;-77
2024/01/11 09:58:45;;;;;;;121.63;48.43;;;-2.00;94.80;;;;;;769512;185;26543;-76
2024/01/11 10:01:12;;;;;;;134.87;47.00;;;-1.90;94.70;;;;;;759888;185;26551;-77
2024/01/11 10:03:39;;;;;;;133.30;49.07;;;-1.90;94.70;;;;;;744920;191;26574;-77
2024/01/11 10:06:06;;;;;;;123.67;45.87;;;-1.80;94.60;;;;;;738003;192;27178;-76
2024/01/11 10:08:33;;;;;;;138.47;48.07;;;-1.80;94.60;;;;;;762179;185;27102;-76
2024/01/11 10:10:59;;;;;;;126.43;46.30;;;-1.70;94.50;;;;;;768971;185;26487;-76
2024/01/11 10:13:27;;;;;;;128.93;47.37;;;-1.70;94.40;;;;;;758282;184;26524;-75
2024/01/11 10:15:53;;;;;;;121.63;46.93;;;-1.60;94.20;;;;;;741860;192;27051;-75
2024/01/11 10:18:23;;;;;;;133.20;49.60;;;-1.60;93.90;;;;;;732307;192;26531;-76
2024/01/11 10:20:46;;;;;;;114.73;46.87;;;-1.50;93.90;;;;;;755717;189;26545;-76
2024/01/11 10:23:13;;;;;;;119.03;46.90;;;-1.40;93.80;;;;;;759659;184;26544;-75
2024/01/11 10:25:40;;;;;;;118.23;48.87;;;-1.40;92.80;;;;;;769849;184;26545;-74
2024/01/11 10:28:06;;;;;;;115.90;46.50;;;-1.40;92.60;;;;;;764193;183;27124;-78
2024/01/11 10:30:33;;;;;;;124.37;47.03;;;-1.30;92.60;;;;;;764242;185;26493;-77
2024/01/11 10:32:59;;;;;;;118.77;47.23;;;-1.10;92.70;;;;;;770404;185;26488;-77
2024/01/11 10:35:26;;;;;;;135.87;49.47;;;-0.80;93.00;;;;;;770744;184;26520;-77
2024/01/11 10:37:53;;;;;;;121.30;48.20;;;-0.50;91.60;;;;;;767519;184;26537;-77
2024/01/11 10:40:23;;;;;;;134.17;48.67;;;-0.30;90.90;;;;;;740681;192;27402;-77
2024/01/11 10:42:46;;;;;;;121.93;47.00;;;0.00;90.60;;;;;;772677;185;26470;-77
2024/01/11 10:45:15;;;;;;;109.93;45.27;;;0.20;89.80;;;;;;757506;185;27059;-77
2024/01/11 10:47:41;;;;;;;121.07;46.97;;;0.60;89.50;;;;;;736388;191;26512;-77
2024/01/11 10:50:08;;;;;;;116.23;47.40;;;0.80;87.50;;;;;;739128;192;27064;-75
2024/01/11 10:52:34;;;;;;;127.17;48.20;;;0.90;85.30;;;;;;745171;189;26560;-78
2024/01/11 10:55:01;;;;;;;117.73;48.13;;;1.00;84.70;;;;;;756488;189;26539;-78
2024/01/11 10:57:27;;;;;;;118.03;47.97;;;1.30;85.00;;;;;;734357;192;26599;-76
2024/01/11 10:59:54;;;;;;;124.93;49.43;;;1.50;83.60;;;;;;736475;192;26567;-76
2024/01/11 11:02:21;;;;;;;113.70;48.17;;;1.50;83.10;;;;;;733916;192;27174;-76
2024/01/11 11:04:48;;;;;;;120.03;46.27;;;1.80;81.00;;;;;;773379;184;26526;-75
2024/01/11 11:07:14;;;;;;;121.33;47.07;;;1.70;78.20;;;;;;767289;185;27079;-76
2024/01/11 11:09:43;;;;;;;127.87;50.70;;;1.80;80.40;;;;;;743841;192;26578;-76
2024/01/11 11:12:07;;;;;;;115.70;48.93;;;2.20;81.20;;;;;;738730;192;26585;-77
2024/01/11 11:14:34;;;;;;;122.63;49.53;;;2.70;80.20;;;;;;735870;191;27149;-75
2024/01/11 11:17:01;;;;;;;123.40;50.33;;;3.00;78.30;;;;;;756625;184;26518;-75
2024/01/11 11:19:27;;;;;;;121.17;49.10;;;2.50;73.90;;;;;;764516;185;26531;-76
2024/01/11 11:21:54;;;;;;;123.40;47.43;;;2.60;75.50;;;;;;744044;190;26575;-75
2024/01/11 11:24:20;;;;;;;124.17;50.60;;;2.70;74.70;;;;;;745821;192;26620;-76
2024/01/11 11:26:47;;;;;;;113.20;48.53;;;2.80;75.60;;;;;;752264;191;27173;-76
2024/01/11 11:29:14;;;;;;;119.83;49.90;;;2.80;76.10;;;;;;750227;188;26573;-76
2024/01/11 11:31:43;;;;;;;124.50;50.33;;;2.80;75.80;;;;;;743128;189;27079;-76
2024/01/11 11:34:12;;;;;;;118.67;49.57;;;3.00;76.10;;;;;;741205;191;26583;-77
2024/01/11 11:36:38;;;;;;;127.73;49.33;;;3.00;76.20;;;;;;748442;189;27095;-76
2024/01/11 11:39:05;;;;;;;118.87;49.57;;;3.00;75.20;;;;;;756932;188;26522;-76
2024/01/11 11:41:32;;;;;;;113.40;48.77;;;2.80;74.80;;;;;;756465;189;26553;-75
2024/01/11 11:44:00;;;;;;;119.63;50.00;;;2.90;74.00;;;;;;750017;189;26510;-76
2024/01/11 11:46:27;;;;;;;132.10;54.27;;;2.50;73.20;;;;;;752232;186;26543;-76
2024/01/11 11:48:55;;;;;;;112.83;45.90;;;2.40;76.00;;;;;;754976;188;26552;-75
2024/01/11 11:51:20;;;;;;;111.47;46.67;;;2.20;74.10;;;;;;747932;189;27124;-77
2024/01/11 11:53:48;;;;;;;107.83;48.53;;;2.10;75.50;;;;;;743358;189;26546;-76
2024/01/11 11:56:16;;;;;;;106.40;46.87;;;2.30;78.40;;;;;;752024;189;26518;-76
2024/01/11 11:58:40;;;;;;;112.93;46.67;;;2.60;77.00;;;;;;756524;189;26491;-75
2024/01/11 12:01:07;;;;;;;109.83;48.07;;;2.70;75.80;;;;;;747665;189;26522;-75
2024/01/11 12:03:33;;;;;;;114.90;48.37;;;2.90;75.10;;;;;;741947;193;27049;-76
2024/01/11 12:06:00;;;;;;;106.93;46.97;;;3.20;75.00;;;;;;746525;189;26585;-75
2024/01/11 12:08:27;;;;;;;100.07;43.77;;;3.40;75.30;;;;;;758088;189;28216;-75
2024/01/11 12:10:53;;;;;;;108.17;45.27;;;3.60;72.00;;;;;;738339;191;26599;-75
2024/01/11 12:13:20;;;;;;;110.03;46.50;;;3.70;71.00;;;;;;773020;186;26473;-75
2024/01/11 12:15:46;;;;;;;108.60;44.73;;;3.90;72.50;;;;;;763734;184;27090;-74
2024/01/11 12:18:13;;;;;;;107.07;45.17;;;4.00;68.20;;;;;;762775;184;26458;-75